Time;durP1;ratioP1;P1;durP2;ratioP2;P2;SDS_P1;SDS_P2;PMS_P1;PMS_P2;Temp;Humidity;BMP_temperature;BMP_pressure;BME280_temperature;BME280_humidity;BME280_pressure;Samples;Min_cycle;Max_cycle;Signal;HPM_P1;HPM_P2
2022/01/19 00:00:42;;;;;;;30.27;17.83;;;;;;;5.67;58.91;103130.13;5029220;28;20049;-59
2022/01/19 00:03:08;;;;;;;30.38;16.55;;;;;;;5.66;58.87;103139.69;5031875;28;20045;-59
2022/01/19 00:05:35;;;;;;;25.20;15.60;;;;;;;5.66;58.93;103142.28;5032033;28;20476;-60
2022/01/19 00:08:02;;;;;;;24.35;14.07;;;;;;;5.67;58.92;103146.59;5031780;28;20045;-60
2022/01/19 00:10:29;;;;;;;22.67;13.63;;;;;;;5.71;59.03;103155.31;5031943;28;20045;-60
2022/01/19 00:12:57;;;;;;;24.13;13.70;;;;;;;5.72;58.72;103159.66;5030826;28;20050;-59
2022/01/19 00:15:28;;;;;;;28.20;15.70;;;;;;;5.71;58.83;103176.16;5031738;28;20510;-60
2022/01/19 00:17:57;;;;;;;23.85;14.35;;;;;;;5.67;59.01;103180.47;5031754;28;20046;-60
2022/01/19 00:20:26;;;;;;;25.55;15.02;;;;;;;5.64;59.18;103177.88;5031609;28;20045;-59
2022/01/19 00:22:54;;;;;;;24.15;15.13;;;;;;;5.65;59.00;103173.53;5031767;28;20045;-60
2022/01/19 00:25:21;;;;;;;26.80;15.85;;;;;;;5.59;59.01;103173.50;5033296;28;20049;-59
2022/01/19 00:27:48;;;;;;;26.70;15.50;;;;;;;5.58;59.21;103171.78;5034567;28;20516;-59
2022/01/19 00:30:15;;;;;;;28.80;16.17;;;;;;;5.55;59.13;103157.88;5035477;28;20045;-59
2022/01/19 00:32:41;;;;;;;23.48;14.65;;;;;;;5.56;59.05;103158.72;5035275;28;20053;-60
2022/01/19 00:35:09;;;;;;;28.95;16.05;;;;;;;5.50;59.17;103157.00;5035663;28;20379;-59
2022/01/19 00:37:39;;;;;;;26.98;15.65;;;;;;;5.42;59.06;103156.06;5035634;28;20041;-60
2022/01/19 00:40:06;;;;;;;26.17;14.98;;;;;;;5.41;59.13;103159.56;5035326;28;20056;-60
2022/01/19 00:42:33;;;;;;;29.17;15.30;;;;;;;5.36;59.17;103156.94;5035069;28;20054;-60
2022/01/19 00:45:00;;;;;;;26.05;16.35;;;;;;;5.32;59.13;103159.50;5033448;28;20081;-60
2022/01/19 00:47:27;;;;;;;31.50;16.75;;;;;;;5.31;59.16;103160.38;5035345;28;20045;-59
2022/01/19 00:49:54;;;;;;;26.90;15.57;;;;;;;5.31;58.95;103168.19;5034009;28;20045;-59
2022/01/19 00:52:21;;;;;;;25.98;15.18;;;;;;;5.25;58.96;103168.16;5035117;28;20055;-59
2022/01/19 00:54:48;;;;;;;27.08;14.90;;;;;;;5.16;59.17;103174.19;5035360;28;20405;-60
2022/01/19 00:57:14;;;;;;;27.25;15.52;;;;;;;5.14;58.84;103181.13;5034933;28;20041;-60
2022/01/19 00:59:41;;;;;;;28.88;16.25;;;;;;;5.07;58.85;103186.28;5033725;28;20053;-60
2022/01/19 01:02:07;;;;;;;26.85;15.90;;;;;;;5.03;58.99;103186.28;5034831;28;20041;-59
2022/01/19 01:04:34;;;;;;;28.20;15.63;;;;;;;4.99;58.88;103179.28;5035040;28;20406;-65
2022/01/19 01:07:02;;;;;;;26.63;15.80;;;;;;;4.95;58.62;103175.81;5034853;28;20058;-60
2022/01/19 01:09:28;;;;;;;32.25;17.23;;;;;;;4.95;58.74;103159.31;5034916;28;20084;-59
2022/01/19 01:12:00;;;;;;;26.13;16.45;;;;;;;4.92;58.70;103148.91;5034284;28;20053;-59
2022/01/19 01:20:04;;;;;;;29.33;18.27;;;;;;;4.83;58.76;103168.78;5034754;28;20053;-59
2022/01/19 01:22:31;;;;;;;31.45;17.92;;;;;;;4.82;58.63;103164.44;5034681;28;20088;-59
2022/01/19 01:24:58;;;;;;;33.10;18.42;;;;;;;4.78;58.73;103165.28;5034596;28;20046;-59
2022/01/19 01:27:25;;;;;;;33.08;18.65;;;;;;;4.79;58.88;103173.97;5034423;28;20099;-60
2022/01/19 01:29:51;;;;;;;30.45;19.40;;;;;;;4.73;59.01;103177.38;5034667;28;20456;-60
2022/01/19 01:32:18;;;;;;;30.75;19.00;;;;;;;4.72;59.12;103186.94;5033216;28;20053;-60
2022/01/19 01:34:45;;;;;;;28.92;19.05;;;;;;;4.68;59.44;103184.28;5034418;28;20045;-60
2022/01/19 01:37:12;;;;;;;29.50;19.10;;;;;;;4.68;59.39;103185.16;5033219;28;20046;-66
2022/01/19 01:39:39;;;;;;;32.15;20.08;;;;;;;4.65;59.03;103177.34;5034326;28;20084;-60
2022/01/19 01:42:11;;;;;;;34.53;21.80;;;;;;;4.63;59.67;103168.63;5033993;28;20041;-60
2022/01/19 01:44:39;;;;;;;35.05;20.92;;;;;;;4.60;59.95;103166.03;5034262;28;20064;-59
2022/01/19 01:47:06;;;;;;;33.63;21.67;;;;;;;4.60;59.84;103159.94;5034123;28;20084;-60
2022/01/19 01:53:16;;;;;;;33.05;19.27;;;;;;;4.55;59.98;103144.31;5033337;28;20045;-60
2022/01/19 01:55:18;;;;;;;43.28;22.42;;;;;;;4.41;59.82;103139.88;5033782;28;20056;-61
2022/01/19 01:57:46;;;;;;;47.67;23.45;;;;;;;4.39;59.92;103139.00;5034022;28;20046;-59
2022/01/19 02:00:15;;;;;;;55.40;25.13;;;;;;;4.38;59.60;103134.66;5033791;28;20146;-59
2022/01/19 02:02:43;;;;;;;46.60;22.70;;;;;;;4.31;59.60;103130.25;5034039;28;20049;-60
2022/01/19 02:05:10;;;;;;;44.85;22.90;;;;;;;4.26;59.61;103121.56;5033784;28;20052;-59
2022/01/19 02:10:30;;;;;;;35.15;20.60;;;;;;;4.32;59.41;103121.59;5033566;28;20103;-60
2022/01/19 02:15:54;;;;;;;41.15;21.85;;;;;;;4.28;59.55;103114.66;5033813;28;20045;-59
2022/01/19 02:23:55;;;;;;;36.40;20.27;;;;;;;4.25;59.43;103105.09;5032501;28;20096;-61
2022/01/19 02:26:47;;;;;;;36.17;19.40;;;;;;;4.24;59.56;103099.88;5033405;28;20486;-59
2022/01/19 02:29:23;;;;;;;33.10;19.52;;;;;;;4.17;59.68;103095.50;5033096;28;20045;-60
2022/01/19 02:36:32;;;;;;;42.38;21.98;;;;;;;4.12;59.75;103100.66;5033292;28;20095;-59
2022/01/19 02:40:15;;;;;;;35.03;20.58;;;;;;;4.07;59.77;103097.13;5032191;28;20056;-60
2022/01/19 02:43:06;;;;;;;34.50;20.13;;;;;;;4.09;59.89;103095.44;5032893;28;20453;-60
2022/01/19 02:51:10;;;;;;;;;;;;;;;3.97;59.83;103087.53;5033548;28;20045;-66
2022/01/19 02:53:38;;;;;;;41.45;22.13;;;;;;;4.02;59.71;103091.91;5032895;28;20404;-60
2022/01/19 02:56:19;;;;;;;39.42;21.23;;;;;;;4.03;59.57;103082.41;5032770;28;20041;-59
2022/01/19 02:58:56;;;;;;;40.90;21.77;;;;;;;4.02;60.05;103083.25;5031880;28;20069;-59
2022/01/19 03:09:24;;;;;;;35.35;19.80;;;;;;;3.92;60.13;103074.50;5032889;28;20045;-59
2022/01/19 03:11:51;;;;;;;42.92;21.38;;;;;;;3.87;60.09;103063.19;5031440;28;20062;-60
2022/01/19 03:14:18;;;;;;;38.83;19.88;;;;;;;3.88;59.95;103072.72;5032613;28;20466;-59
2022/01/19 03:16:46;;;;;;;41.80;21.98;;;;;;;3.90;59.86;103065.84;5032776;28;20508;-59
2022/01/19 03:19:14;;;;;;;36.13;19.48;;;;;;;3.89;59.92;103070.13;5032367;28;20494;-60
2022/01/19 03:21:41;;;;;;;39.40;19.58;;;;;;;3.86;60.04;103062.34;5032589;28;20057;-67
2022/01/19 03:24:10;;;;;;;36.70;19.55;;;;;;;3.88;59.94;103063.19;5032319;28;20046;-60
2022/01/19 03:26:37;;;;;;;34.65;19.60;;;;;;;3.88;59.87;103062.34;5032443;28;20041;-59
2022/01/19 03:29:04;;;;;;;35.83;19.40;;;;;;;3.83;59.99;103053.63;5032121;28;20041;-59
2022/01/19 03:31:30;;;;;;;36.70;19.52;;;;;;;3.85;60.02;103057.13;5031382;28;20042;-59
2022/01/19 03:33:57;;;;;;;30.30;19.15;;;;;;;3.79;60.11;103055.34;5032392;28;20041;-59
2022/01/19 03:36:24;;;;;;;33.10;19.20;;;;;;;3.74;60.45;103054.41;5032452;28;20041;-60
2022/01/19 03:38:51;;;;;;;31.17;19.35;;;;;;;3.69;60.27;103062.16;5032382;28;20049;-60
2022/01/19 03:41:17;;;;;;;31.02;19.67;;;;;;;3.66;60.09;103059.53;5031676;28;20069;-60
2022/01/19 03:43:44;;;;;;;31.65;20.45;;;;;;;3.63;60.27;103062.13;5032234;28;20456;-59
2022/01/19 03:46:15;;;;;;;37.00;23.50;;;;;;;3.60;60.22;103062.94;5032018;28;20046;-59
2022/01/19 03:48:51;;;;;;;32.17;21.20;;;;;;;3.57;60.71;103060.31;5031141;28;20037;-60
2022/01/19 03:51:18;;;;;;;28.83;19.02;;;;;;;3.54;60.52;103056.81;5031970;28;20052;-61
2022/01/19 03:53:46;;;;;;;25.55;18.63;;;;;;;3.51;60.12;103057.66;5032087;28;20087;-59
2022/01/19 03:56:12;;;;;;;28.38;18.70;;;;;;;3.48;60.61;103056.75;5031899;28;20053;-59
2022/01/19 03:58:39;;;;;;;29.67;21.08;;;;;;;3.46;60.69;103055.88;5031893;28;20072;-60
2022/01/19 04:01:07;;;;;;;34.55;23.17;;;;;;;3.41;60.62;103056.69;5034956;28;20179;-59
2022/01/19 04:04:02;;;;;;;34.45;23.45;;;;;;;3.38;60.38;103051.47;5030985;28;20077;-60
2022/01/19 04:06:27;;;;;;;38.80;24.48;;;;;;;3.35;60.61;103050.56;5032553;28;20510;-59
2022/01/19 04:08:54;;;;;;;36.90;23.70;;;;;;;3.25;60.75;103059.97;5032228;28;20119;-60
2022/01/19 04:11:23;;;;;;;45.05;25.30;;;;;;;3.22;60.37;103059.94;5032331;28;20111;-60
2022/01/19 04:16:32;;;;;;;40.30;24.30;;;;;;;3.18;60.09;103060.75;5032886;28;20049;-59
2022/01/19 04:19:16;;;;;;;43.40;25.85;;;;;;;3.15;60.23;103058.13;5031461;28;20046;-59
2022/01/19 04:21:43;;;;;;;41.25;26.80;;;;;;;3.17;60.02;103057.28;5032587;28;20054;-59
2022/01/19 04:24:09;;;;;;;41.60;26.15;;;;;;;3.15;59.92;103050.31;5032406;28;20064;-67
2022/01/19 04:26:36;;;;;;;41.03;26.33;;;;;;;3.13;60.21;103047.72;5032743;28;20053;-59
2022/01/19 04:29:03;;;;;;;39.50;26.15;;;;;;;3.14;60.04;103051.22;5032558;28;20099;-59
2022/01/19 04:31:29;;;;;;;43.58;27.88;;;;;;;3.12;59.95;103053.75;5032418;28;20041;-59
2022/01/19 04:34:01;;;;;;;43.00;28.42;;;;;;;3.19;59.75;103049.53;5032319;28;20053;-59
2022/01/19 04:36:35;;;;;;;51.10;31.75;;;;;;;3.18;59.75;103046.06;5031430;28;20575;-58
2022/01/19 05:05:59;;;;;;;34.10;24.88;;;;;;;2.85;59.43;103026.63;5031633;28;20049;-59
2022/01/19 05:13:50;;;;;;;33.20;24.27;;;;;;;2.90;59.37;103030.16;5031501;28;20390;-59
2022/01/19 05:16:19;;;;;;;;;;;;;;;2.84;59.56;103031.81;5031913;28;20046;-59
2022/01/19 05:18:47;;;;;;;37.58;24.67;;;;;;;2.84;59.52;103019.69;5031486;28;19920;-59
2022/01/19 05:21:15;;;;;;;34.00;24.95;;;;;;;2.86;59.49;103025.78;5031262;28;20103;-59
2022/01/19 05:23:42;;;;;;;38.35;25.55;;;;;;;2.80;59.62;103024.84;5031334;28;20063;-61
2022/01/19 05:26:09;;;;;;;34.70;25.90;;;;;;;2.79;59.80;103029.16;5031102;28;20049;-61
2022/01/19 05:28:36;;;;;;;35.83;25.67;;;;;;;2.78;59.90;103022.22;5030519;28;20076;-59
2022/01/19 05:31:03;;;;;;;36.63;24.70;;;;;;;2.75;60.04;103017.00;5031014;28;20514;-60
2022/01/19 05:33:30;;;;;;;35.03;24.73;;;;;;;2.72;60.21;103017.84;5031211;28;20416;-59
2022/01/19 05:35:57;;;;;;;34.50;24.80;;;;;;;2.73;60.30;103010.91;5030996;28;20049;-59
2022/01/19 05:38:24;;;;;;;35.58;25.63;;;;;;;2.76;60.01;103019.59;5031224;28;20486;-59
2022/01/19 05:40:51;;;;;;;36.05;24.48;;;;;;;2.81;59.97;103029.19;5030518;28;20049;-59
2022/01/19 05:43:18;;;;;;;32.00;24.27;;;;;;;2.80;59.94;103024.84;5030856;28;20087;-59
2022/01/19 05:45:45;;;;;;;31.52;23.30;;;;;;;2.70;60.04;103018.66;5030365;28;20045;-59
2022/01/19 05:48:11;;;;;;;29.83;22.73;;;;;;;2.68;60.01;103029.03;5030620;28;20061;-59
2022/01/19 05:50:38;;;;;;;33.38;23.33;;;;;;;2.65;60.01;103021.19;5030986;28;20052;-59
2022/01/19 05:53:05;;;;;;;32.40;24.40;;;;;;;2.64;60.08;103023.75;5031154;28;20052;-59
2022/01/19 05:55:31;;;;;;;33.38;23.42;;;;;;;2.60;59.98;103015.97;5030641;28;20119;-59
2022/01/19 05:57:58;;;;;;;30.25;21.90;;;;;;;2.56;59.96;103026.25;5030374;28;20529;-59
2022/01/19 06:00:25;;;;;;;32.55;21.92;;;;;;;2.49;60.09;103029.59;5029689;28;20038;-67
2022/01/19 06:02:52;;;;;;;30.02;23.25;;;;;;;2.45;60.13;103021.78;5030448;28;20111;-59
2022/01/19 06:05:19;;;;;;;37.30;25.88;;;;;;;2.43;60.02;103020.03;5030494;28;20107;-62
2022/01/19 06:07:48;;;;;;;47.47;30.17;;;;;;;2.41;60.14;103026.91;5030630;28;20052;-65
2022/01/19 06:10:42;;;;;;;36.75;25.40;;;;;;;2.38;59.95;103017.38;5030463;28;20053;-62
2022/01/19 06:13:07;;;;;;;32.78;22.92;;;;;;;2.38;60.03;103025.13;5029709;28;20056;-62
2022/01/19 06:15:36;;;;;;;34.42;23.90;;;;;;;2.38;60.03;103040.69;5024507;28;20049;-62
2022/01/19 06:18:03;;;;;;;28.65;21.45;;;;;;;2.48;59.64;103038.25;5030361;28;20107;-63
2022/01/19 06:20:30;;;;;;;26.60;20.58;;;;;;;2.43;59.64;103039.03;5030215;28;20046;-63
2022/01/19 06:22:57;;;;;;;28.40;20.98;;;;;;;2.40;59.75;103032.94;5029395;28;20414;-63
2022/01/19 06:25:23;;;;;;;28.40;20.45;;;;;;;2.39;59.62;103031.22;5030127;28;20048;-63
2022/01/19 06:27:50;;;;;;;30.13;20.10;;;;;;;2.33;59.85;103037.16;5029917;28;20053;-63
2022/01/19 06:30:17;;;;;;;30.00;21.08;;;;;;;2.27;60.15;103043.13;5029772;28;20120;-66
2022/01/19 06:32:44;;;;;;;27.30;20.13;;;;;;;2.28;60.04;103044.00;5027175;28;20056;-63
2022/01/19 06:35:11;;;;;;;27.60;20.42;;;;;;;2.35;59.83;103039.75;5011301;28;20502;-63
2022/01/19 06:37:38;;;;;;;26.70;18.73;;;;;;;2.40;59.66;103020.88;5013459;28;20566;-62
2022/01/19 06:40:06;;;;;;;29.05;20.25;;;;;;;2.42;59.65;103033.84;5029975;28;20041;-62
2022/01/19 06:42:35;;;;;;;31.48;19.35;;;;;;;2.40;59.87;103033.81;5029369;28;20144;-63
2022/01/19 06:45:04;;;;;;;30.08;18.27;;;;;;;2.36;60.12;103032.03;5029870;28;20459;-62
2022/01/19 06:47:31;;;;;;;30.75;18.25;;;;;;;2.29;60.30;103038.81;5029879;28;20057;-62
2022/01/19 06:49:58;;;;;;;34.30;18.95;;;;;;;2.93;59.95;103031.91;5028569;28;20077;-60
2022/01/19 06:52:25;;;;;;;32.63;18.85;;;;;;;2.65;60.86;103041.94;5029614;28;20271;-60
2022/01/19 06:54:52;;;;;;;36.72;18.70;;;;;;;2.53;61.09;103031.41;5029700;28;20103;-60
2022/01/19 06:57:19;;;;;;;47.83;19.58;;;;;;;2.46;61.54;103035.63;5029518;28;20049;-60
2022/01/19 06:59:45;;;;;;;41.95;20.02;;;;;;;2.40;61.68;103045.88;5028718;28;20107;-60
2022/01/19 07:02:12;;;;;;;36.88;18.63;;;;;;;2.36;61.66;103044.09;5028585;28;20091;-60
2022/01/19 07:04:46;;;;;;;27.40;18.27;;;;;;;2.38;61.97;103043.28;5036806;28;20045;-59
2022/01/19 07:07:13;;;;;;;31.55;14.27;;;;;;;2.33;62.11;103037.16;5031335;28;20494;-60
2022/01/19 07:09:40;;;;;;;27.90;15.73;;;;;;;2.29;62.55;103033.66;5028406;28;20042;-61
2022/01/19 07:12:07;;;;;;;25.85;15.32;;;;;;;2.33;62.57;103034.56;5016717;28;20502;-59
2022/01/19 07:14:34;;;;;;;23.88;16.05;;;;;;;2.31;62.64;103040.56;5020062;28;20081;-60
2022/01/19 07:17:01;;;;;;;26.95;18.58;;;;;;;2.34;62.68;103038.91;5010668;28;20045;-59
2022/01/19 07:19:28;;;;;;;25.15;18.85;;;;;;;2.41;62.44;103025.19;5010918;28;20505;-60
2022/01/19 07:21:54;;;;;;;26.05;17.77;;;;;;;2.47;62.50;103020.97;5017007;28;20084;-60
2022/01/19 07:24:21;;;;;;;23.35;17.02;;;;;;;2.47;62.75;103029.59;5010729;28;20486;-59
2022/01/19 07:26:48;;;;;;;27.77;17.02;;;;;;;2.50;62.59;103024.47;5008916;28;20498;-60
2022/01/19 07:29:15;;;;;;;138.68;48.40;;;;;;;2.55;62.41;103019.31;5013628;28;20049;-60
2022/01/19 07:31:42;;;;;;;344.70;100.70;;;;;;;2.58;62.38;103021.97;5012568;28;20046;-60
2022/01/19 07:34:09;;;;;;;344.27;102.60;;;;;;;2.53;62.57;103019.31;5011122;28;20453;-60
2022/01/19 07:36:36;;;;;;;337.10;100.75;;;;;;;2.47;62.77;103021.81;5009735;28;20478;-60
2022/01/19 07:39:03;;;;;;;377.63;104.93;;;;;;;2.50;62.71;103023.56;5023047;28;20079;-60
2022/01/19 07:41:30;;;;;;;253.20;76.72;;;;;;;2.45;63.33;103015.72;5015562;28;20619;-60
2022/01/19 07:43:58;;;;;;;164.10;53.75;;;;;;;2.42;62.91;103007.91;5027689;28;20052;-60
2022/01/19 07:46:25;;;;;;;142.60;47.95;;;;;;;2.48;63.19;103009.75;5028430;28;20053;-59
2022/01/19 07:48:52;;;;;;;97.38;38.92;;;;;;;2.58;62.92;103006.44;5028723;28;20053;-60
2022/01/19 07:51:18;;;;;;;60.38;29.90;;;;;;;2.64;62.93;102990.06;5025207;28;20050;-61
2022/01/19 07:53:45;;;;;;;58.08;27.77;;;;;;;2.60;62.84;102996.94;5027396;28;20045;-59
2022/01/19 07:56:12;;;;;;;64.63;29.65;;;;;;;2.63;62.92;103002.16;5027987;28;20401;-60
2022/01/19 07:58:39;;;;;;;117.20;43.63;;;;;;;2.64;62.93;102990.06;5027993;28;20402;-59
2022/01/19 08:01:06;;;;;;;104.47;42.85;;;;;;;2.65;63.28;103004.78;5028208;28;20046;-59
2022/01/19 08:03:34;;;;;;;95.05;43.42;;;;;;;2.73;62.78;103004.03;5026364;28;20071;-59
2022/01/19 08:06:05;;;;;;;85.50;37.92;;;;;;;2.79;62.63;103005.81;5027890;28;20421;-60
2022/01/19 08:08:32;;;;;;;60.47;31.83;;;;;;;2.82;62.58;103003.28;5028388;28;20103;-60
2022/01/19 08:10:59;;;;;;;41.58;25.60;;;;;;;2.85;62.59;103000.72;5027654;28;20061;-59
2022/01/19 08:13:25;;;;;;;29.67;19.67;;;;;;;2.86;62.45;102996.41;5027590;28;20057;-60
2022/01/19 08:15:52;;;;;;;30.35;20.13;;;;;;;2.89;62.60;102999.88;5027377;28;20148;-59
2022/01/19 08:18:19;;;;;;;25.45;18.80;;;;;;;2.87;62.56;102987.75;5027850;28;20202;-64
2022/01/19 08:20:46;;;;;;;27.23;20.48;;;;;;;2.88;62.59;102994.69;5027771;28;20546;-59
2022/01/19 08:23:12;;;;;;;28.38;19.15;;;;;;;2.97;62.66;102992.22;5027652;28;20054;-60
2022/01/19 08:25:39;;;;;;;27.92;18.75;;;;;;;3.01;62.49;102994.00;5027205;28;20045;-60
2022/01/19 08:28:06;;;;;;;28.42;20.42;;;;;;;3.07;62.48;102982.78;5027767;28;20052;-59
2022/01/19 08:30:32;;;;;;;28.08;20.65;;;;;;;3.10;62.53;102988.91;5027990;28;20038;-60
2022/01/19 08:32:59;;;;;;;30.05;20.25;;;;;;;3.10;62.70;102998.41;5027833;28;20429;-60
2022/01/19 08:35:26;;;;;;;35.97;22.10;;;;;;;3.11;62.98;102992.34;5017540;28;20050;-59
2022/01/19 08:37:53;;;;;;;35.42;19.80;;;;;;;3.14;62.93;102994.13;5027514;28;20080;-61
2022/01/19 08:40:25;;;;;;;46.35;22.52;;;;;;;3.19;63.06;102987.28;5027645;28;20171;-59
2022/01/19 08:42:54;;;;;;;44.20;23.48;;;;;;;3.27;63.04;102994.25;5026650;28;20049;-60
2022/01/19 08:45:22;;;;;;;52.05;26.60;;;;;;;3.31;63.54;102992.56;5027014;28;20056;-59
2022/01/19 08:47:50;;;;;;;49.65;24.52;;;;;;;3.36;63.58;102990.88;5031435;28;20163;-60
2022/01/19 08:50:17;;;;;;;43.13;23.23;;;;;;;3.38;63.92;102986.59;5031101;28;20083;-60
2022/01/19 08:52:47;;;;;;;57.05;25.10;;;;;;;3.46;63.81;102986.66;5031810;28;20060;-60
2022/01/19 08:55:14;;;;;;;38.88;22.15;;;;;;;3.55;64.34;102984.13;5029631;28;20042;-60
2022/01/19 08:57:42;;;;;;;40.13;20.98;;;;;;;3.53;64.47;102982.38;5030221;28;20414;-60
2022/01/19 09:00:12;;;;;;;40.95;21.83;;;;;;;3.62;64.48;102987.69;5030911;28;20048;-60
2022/01/19 09:02:39;;;;;;;38.47;20.83;;;;;;;3.71;64.75;102979.09;5031306;28;20417;-60
2022/01/19 09:05:07;;;;;;;34.33;20.00;;;;;;;3.76;64.72;102983.47;5031113;28;20073;-60
2022/01/19 09:07:35;;;;;;;50.75;28.17;;;;;;;3.84;64.89;102982.66;5030255;28;20581;-60
2022/01/19 09:10:03;;;;;;;64.70;35.92;;;;;;;3.88;65.23;102977.47;5031184;28;20081;-59
2022/01/19 09:12:30;;;;;;;149.77;72.70;;;;;;;3.96;65.31;102977.56;5029997;28;20049;-60
2022/01/19 09:14:57;;;;;;;95.55;49.78;;;;;;;4.01;65.64;102975.88;5030852;28;20436;-59
2022/01/19 09:17:24;;;;;;;67.70;34.40;;;;;;;4.06;66.04;102974.19;5016154;28;20215;-60
2022/01/19 09:19:51;;;;;;;86.28;45.03;;;;;;;4.09;66.11;102965.53;5020937;28;20107;-59
2022/01/19 09:22:17;;;;;;;57.75;31.95;;;;;;;4.18;66.36;102964.72;5030481;28;20049;-60
2022/01/19 09:24:44;;;;;;;112.07;52.58;;;;;;;4.25;66.40;102961.28;5031005;28;20045;-60
2022/01/19 09:27:14;;;;;;;107.28;54.25;;;;;;;4.28;66.73;102958.72;5030467;28;20490;-60
2022/01/19 09:29:43;;;;;;;90.90;47.53;;;;;;;4.37;67.02;102961.34;5030884;28;20498;-60
2022/01/19 09:32:11;;;;;;;205.93;107.43;;;;;;;4.35;67.53;102964.81;5027346;28;20049;-63
2022/01/19 09:34:41;;;;;;;81.57;43.83;;;;;;;4.41;68.26;102957.91;5028139;28;20041;-60
2022/01/19 09:37:08;;;;;;;63.55;30.42;;;;;;;4.51;68.18;102955.38;5030293;28;20049;-60
2022/01/19 09:39:35;;;;;;;58.17;27.17;;;;;;;4.57;68.42;102952.75;5029991;28;20041;-60
2022/01/19 09:42:02;;;;;;;62.55;27.65;;;;;;;4.65;68.54;102956.28;5029955;28;20053;-60
2022/01/19 09:44:29;;;;;;;72.53;35.17;;;;;;;4.51;69.05;102958.81;5030589;28;20569;-59
2022/01/19 09:46:58;;;;;;;64.30;28.35;;;;;;;4.57;69.35;102958.84;5028907;28;20049;-60
2022/01/19 09:49:25;;;;;;;49.45;22.92;;;;;;;4.66;69.38;102960.63;5029803;28;20049;-60
2022/01/19 09:51:54;;;;;;;54.47;23.27;;;;;;;4.61;69.86;102961.44;5030649;28;20044;-60
2022/01/19 09:54:26;;;;;;;50.17;25.15;;;;;;;4.60;70.18;102950.19;5028504;28;20057;-64
2022/01/19 09:56:54;;;;;;;55.80;25.92;;;;;;;4.70;70.11;102954.56;5020518;28;20053;-69
2022/01/19 09:59:22;;;;;;;40.50;22.77;;;;;;;4.66;70.31;102949.34;5028744;28;20045;-60
2022/01/19 10:01:56;;;;;;;50.97;21.23;;;;;;;4.62;70.29;102953.69;5030284;28;20045;-59
2022/01/19 10:04:30;;;;;;;38.55;21.60;;;;;;;4.61;71.01;102944.13;5030214;28;20087;-60
2022/01/19 10:07:16;;;;;;;38.25;21.30;;;;;;;4.73;70.81;102936.34;5022203;28;20050;-60
2022/01/19 10:09:57;;;;;;;44.33;22.35;;;;;;;4.81;70.94;102943.31;5029086;28;20049;-61
2022/01/19 10:18:18;;;;;;;42.25;23.05;;;;;;;4.94;71.15;102928.59;5020701;28;20140;-59
2022/01/19 10:20:48;;;;;;;41.83;22.55;;;;;;;5.01;71.04;102917.38;5019930;28;20041;-62
2022/01/19 10:23:36;;;;;;;43.40;21.65;;;;;;;4.98;70.99;102920.81;5010634;28;20046;-62
2022/01/19 10:26:09;;;;;;;57.15;25.05;;;;;;;4.98;71.34;102909.56;5011789;28;20125;-62
2022/01/19 10:28:58;;;;;;;43.30;24.33;;;;;;;5.05;71.08;102903.47;5010091;28;20045;-62
2022/01/19 10:31:26;;;;;;;48.67;23.50;;;;;;;5.07;71.14;102902.63;5020077;28;20502;-62
2022/01/19 10:34:12;;;;;;;47.67;22.83;;;;;;;5.02;71.16;102908.69;5012106;28;20072;-62
2022/01/19 10:36:40;;;;;;;41.95;23.08;;;;;;;5.06;71.42;102897.41;5023244;28;20072;-63
2022/01/19 10:39:07;;;;;;;38.85;20.85;;;;;;;5.19;71.77;102886.16;5011470;28;20042;-60
2022/01/19 10:41:34;;;;;;;40.95;22.25;;;;;;;5.28;71.04;102882.69;5010948;28;20107;-62
2022/01/19 10:44:01;;;;;;;43.60;23.60;;;;;;;5.33;71.07;102880.97;5021135;28;20120;-61
2022/01/19 10:46:34;;;;;;;41.65;20.92;;;;;;;5.32;70.92;102878.34;5011280;28;20061;-61
2022/01/19 10:49:05;;;;;;;39.60;22.98;;;;;;;5.22;71.37;102885.31;5020161;28;20061;-62
2022/01/19 10:51:40;;;;;;;38.92;21.98;;;;;;;5.24;71.34;102886.16;5028661;28;20046;-63
2022/01/19 10:54:13;;;;;;;42.63;24.30;;;;;;;5.33;71.42;102883.56;5028183;28;20056;-62
2022/01/19 10:56:42;;;;;;;42.40;23.88;;;;;;;5.34;71.21;102876.63;5027885;28;20410;-62
2022/01/19 10:59:14;;;;;;;67.55;35.05;;;;;;;5.34;71.23;102861.84;5028897;28;20045;-62
2022/01/19 11:01:51;;;;;;;41.08;23.73;;;;;;;5.37;71.29;102859.25;5028628;28;20509;-63
2022/01/19 11:04:22;;;;;;;46.67;26.17;;;;;;;5.43;71.29;102855.78;5028764;28;20049;-62
2022/01/19 11:06:54;;;;;;;46.13;24.55;;;;;;;5.52;71.12;102852.28;5028964;28;20056;-62
2022/01/19 11:09:24;;;;;;;42.53;24.35;;;;;;;5.50;71.33;102848.84;5028694;28;20099;-62
2022/01/19 11:11:54;;;;;;;40.42;25.17;;;;;;;5.54;71.28;102838.41;5028297;28;20406;-62
2022/01/19 11:14:23;;;;;;;41.97;23.65;;;;;;;5.60;71.16;102821.91;5015121;28;20072;-62
2022/01/19 11:16:51;;;;;;;44.95;25.75;;;;;;;5.61;71.14;102818.44;5028868;28;20050;-61
2022/01/19 11:19:19;;;;;;;55.00;27.63;;;;;;;5.55;71.19;102815.84;5028905;28;20114;-61
2022/01/19 11:22:15;;;;;;;42.88;25.92;;;;;;;5.56;71.25;102810.63;5029097;28;20046;-62
2022/01/19 11:24:57;;;;;;;46.53;25.30;;;;;;;5.53;71.43;102808.00;5027971;28;20445;-61
2022/01/19 11:27:28;;;;;;;80.28;44.05;;;;;;;5.55;71.14;102797.63;5028727;28;20049;-61
2022/01/19 11:30:16;;;;;;;60.13;28.35;;;;;;;5.56;71.53;102794.13;5028897;28;20379;-61
2022/01/19 11:32:45;;;;;;;55.22;27.83;;;;;;;5.62;71.59;102785.44;5028631;28;20046;-62
2022/01/19 11:35:34;;;;;;;52.90;26.25;;;;;;;5.65;71.46;102783.69;5028073;28;20498;-61
2022/01/19 11:38:21;;;;;;;57.83;26.75;;;;;;;5.69;71.22;102780.19;5028626;28;20045;-61
2022/01/19 11:40:48;;;;;;;46.10;24.92;;;;;;;5.76;71.26;102778.44;5028024;28;20049;-62
2022/01/19 11:43:21;;;;;;;52.17;26.83;;;;;;;5.77;71.15;102766.28;5028072;28;20045;-62
2022/01/19 11:45:48;;;;;;;46.35;26.80;;;;;;;5.77;71.31;102767.16;5028327;28;20967;-61
2022/01/19 11:48:20;;;;;;;46.03;26.98;;;;;;;5.83;71.54;102759.31;5027887;28;20071;-62
2022/01/19 11:50:48;;;;;;;47.28;25.60;;;;;;;5.85;71.36;102756.69;5028482;28;20049;-70
2022/01/19 11:53:16;;;;;;;46.72;27.73;;;;;;;5.86;71.15;102748.00;5028149;28;20414;-61
2022/01/19 11:56:06;;;;;;;62.92;30.27;;;;;;;5.85;71.18;102736.72;5027649;28;20092;-61
2022/01/19 11:58:33;;;;;;;54.70;27.75;;;;;;;5.89;71.16;102732.34;5028397;28;20049;-62
2022/01/19 12:01:00;;;;;;;45.60;26.92;;;;;;;5.73;71.79;102727.22;5028257;28;20045;-61
2022/01/19 12:03:33;;;;;;;50.25;28.23;;;;;;;5.80;71.23;102735.00;5028165;28;20129;-61
2022/01/19 12:06:30;;;;;;;49.60;29.55;;;;;;;5.82;71.57;102725.47;5027822;28;20140;-61
2022/01/19 12:08:58;;;;;;;48.58;29.05;;;;;;;5.81;71.47;102721.97;5028657;28;20054;-61
2022/01/19 12:11:28;;;;;;;52.55;29.10;;;;;;;5.84;71.49;102721.97;5027360;28;20075;-61
2022/01/19 12:14:34;;;;;;;54.97;28.75;;;;;;;5.86;71.45;102719.34;5028003;28;20418;-61
2022/01/19 12:17:01;;;;;;;53.42;29.30;;;;;;;5.86;71.21;102714.13;5027464;28;20057;-62
2022/01/19 12:19:30;;;;;;;53.50;30.83;;;;;;;5.74;72.06;102704.66;5028293;28;20053;-61
2022/01/19 12:22:17;;;;;;;51.85;30.05;;;;;;;5.69;71.63;102698.59;5030999;28;20504;-61
2022/01/19 12:24:56;;;;;;;50.95;30.33;;;;;;;5.74;71.65;102683.81;5031977;28;20525;-61
2022/01/19 12:27:27;;;;;;;50.58;30.60;;;;;;;5.86;71.56;102681.13;5031336;28;20497;-61
2022/01/19 12:30:16;;;;;;;44.80;27.35;;;;;;;5.85;71.59;102679.41;5032083;28;20046;-61
2022/01/19 12:32:48;;;;;;;47.95;28.60;;;;;;;5.78;71.83;102674.25;5031938;28;20491;-62
2022/01/19 12:35:36;;;;;;;45.60;28.45;;;;;;;5.82;71.58;102670.75;5031970;28;20042;-61
2022/01/19 12:38:18;;;;;;;53.03;30.10;;;;;;;5.76;71.57;102660.34;5030943;28;20053;-61
2022/01/19 12:40:47;;;;;;;56.92;30.58;;;;;;;5.63;72.19;102651.75;5031323;28;20490;-62
2022/01/19 12:43:29;;;;;;;54.88;30.27;;;;;;;5.71;71.99;102643.03;5031791;28;20041;-62
2022/01/19 12:45:58;;;;;;;53.88;31.77;;;;;;;5.74;71.72;102634.31;5032048;28;20054;-62
2022/01/19 12:48:37;;;;;;;50.78;29.65;;;;;;;5.80;72.02;102623.88;5032012;28;20049;-62